sensor_id;sensor_type;location;lat;lon;timestamp;P1;durP1;ratioP1;P2;durP2;ratioP2
22764;SDS011;11549;50.852;3.816;2023-09-18T00:00:53;12.02;;;7.80;;
22764;SDS011;11549;50.852;3.816;2023-09-18T00:03:22;12.45;;;7.70;;
22764;SDS011;11549;50.852;3.816;2023-09-18T00:05:52;13.52;;;7.93;;
22764;SDS011;11549;50.852;3.816;2023-09-18T00:08:22;10.10;;;7.80;;
22764;SDS011;11549;50.852;3.816;2023-09-18T00:10:51;11.82;;;7.22;;
22764;SDS011;11549;50.852;3.816;2023-09-18T00:13:21;10.50;;;6.88;;
22764;SDS011;11549;50.852;3.816;2023-09-18T00:15:54;10.35;;;6.20;;
22764;SDS011;11549;50.852;3.816;2023-09-18T00:18:26;10.60;;;6.97;;
22764;SDS011;11549;50.852;3.816;2023-09-18T00:20:54;7.97;;;6.40;;
22764;SDS011;11549;50.852;3.816;2023-09-18T00:23:25;9.55;;;6.60;;
22764;SDS011;11549;50.852;3.816;2023-09-18T00:25:53;9.10;;;6.65;;
22764;SDS011;11549;50.852;3.816;2023-09-18T00:28:21;8.52;;;6.10;;
22764;SDS011;11549;50.852;3.816;2023-09-18T00:30:49;8.77;;;6.57;;
22764;SDS011;11549;50.852;3.816;2023-09-18T00:33:18;9.82;;;6.50;;
22764;SDS011;11549;50.852;3.816;2023-09-18T00:35:47;11.65;;;6.88;;
22764;SDS011;11549;50.852;3.816;2023-09-18T00:38:15;9.48;;;6.85;;
22764;SDS011;11549;50.852;3.816;2023-09-18T00:40:46;8.55;;;6.03;;
22764;SDS011;11549;50.852;3.816;2023-09-18T00:43:14;9.00;;;5.47;;
22764;SDS011;11549;50.852;3.816;2023-09-18T00:45:45;11.20;;;6.70;;
22764;SDS011;11549;50.852;3.816;2023-09-18T00:48:15;7.43;;;5.88;;
22764;SDS011;11549;50.852;3.816;2023-09-18T00:50:44;9.80;;;6.30;;
22764;SDS011;11549;50.852;3.816;2023-09-18T00:53:14;9.70;;;7.50;;
22764;SDS011;11549;50.852;3.816;2023-09-18T00:55:46;15.32;;;9.63;;
22764;SDS011;11549;50.852;3.816;2023-09-18T00:58:16;12.35;;;9.90;;
22764;SDS011;11549;50.852;3.816;2023-09-18T01:00:44;13.77;;;9.90;;
22764;SDS011;11549;50.852;3.816;2023-09-18T01:03:13;14.75;;;9.68;;
22764;SDS011;11549;50.852;3.816;2023-09-18T01:05:43;13.35;;;9.43;;
22764;SDS011;11549;50.852;3.816;2023-09-18T01:08:12;12.20;;;9.30;;
22764;SDS011;11549;50.852;3.816;2023-09-18T01:10:42;10.68;;;8.07;;
22764;SDS011;11549;50.852;3.816;2023-09-18T01:13:23;11.50;;;8.65;;
22764;SDS011;11549;50.852;3.816;2023-09-18T01:15:58;12.98;;;8.18;;
22764;SDS011;11549;50.852;3.816;2023-09-18T01:18:34;11.75;;;8.43;;
22764;SDS011;11549;50.852;3.816;2023-09-18T01:21:03;13.23;;;8.57;;
22764;SDS011;11549;50.852;3.816;2023-09-18T01:23:32;14.10;;;8.48;;
22764;SDS011;11549;50.852;3.816;2023-09-18T01:26:00;13.18;;;8.50;;
22764;SDS011;11549;50.852;3.816;2023-09-18T01:28:29;12.82;;;7.68;;
22764;SDS011;11549;50.852;3.816;2023-09-18T01:30:57;9.68;;;7.45;;
22764;SDS011;11549;50.852;3.816;2023-09-18T01:33:26;9.80;;;6.97;;
22764;SDS011;11549;50.852;3.816;2023-09-18T01:35:55;11.73;;;7.40;;
22764;SDS011;11549;50.852;3.816;2023-09-18T01:38:25;9.90;;;6.72;;
22764;SDS011;11549;50.852;3.816;2023-09-18T01:40:55;10.85;;;6.78;;
22764;SDS011;11549;50.852;3.816;2023-09-18T01:43:24;9.90;;;6.55;;
22764;SDS011;11549;50.852;3.816;2023-09-18T01:45:53;9.98;;;6.85;;
22764;SDS011;11549;50.852;3.816;2023-09-18T01:48:22;10.30;;;6.70;;
22764;SDS011;11549;50.852;3.816;2023-09-18T01:50:51;8.82;;;5.90;;
22764;SDS011;11549;50.852;3.816;2023-09-18T01:53:20;8.27;;;6.20;;
22764;SDS011;11549;50.852;3.816;2023-09-18T01:55:48;9.23;;;6.07;;
22764;SDS011;11549;50.852;3.816;2023-09-18T01:58:18;9.77;;;5.90;;
22764;SDS011;11549;50.852;3.816;2023-09-18T02:00:46;10.18;;;6.22;;
22764;SDS011;11549;50.852;3.816;2023-09-18T02:03:15;9.05;;;6.28;;
22764;SDS011;11549;50.852;3.816;2023-09-18T02:06:00;9.95;;;6.47;;
22764;SDS011;11549;50.852;3.816;2023-09-18T02:08:28;10.45;;;6.57;;
22764;SDS011;11549;50.852;3.816;2023-09-18T02:10:57;8.82;;;6.93;;
22764;SDS011;11549;50.852;3.816;2023-09-18T02:13:26;9.15;;;6.53;;
22764;SDS011;11549;50.852;3.816;2023-09-18T02:15:55;12.05;;;6.95;;
22764;SDS011;11549;50.852;3.816;2023-09-18T02:18:23;8.68;;;6.22;;
22764;SDS011;11549;50.852;3.816;2023-09-18T02:20:51;10.25;;;6.63;;
22764;SDS011;11549;50.852;3.816;2023-09-18T02:23:20;10.50;;;7.28;;
22764;SDS011;11549;50.852;3.816;2023-09-18T02:25:54;9.07;;;6.78;;
22764;SDS011;11549;50.852;3.816;2023-09-18T02:28:24;12.55;;;7.25;;
22764;SDS011;11549;50.852;3.816;2023-09-18T02:30:53;10.25;;;8.02;;
22764;SDS011;11549;50.852;3.816;2023-09-18T02:33:22;12.70;;;7.20;;
22764;SDS011;11549;50.852;3.816;2023-09-18T02:35:50;12.60;;;7.55;;
22764;SDS011;11549;50.852;3.816;2023-09-18T02:38:18;10.95;;;7.63;;
22764;SDS011;11549;50.852;3.816;2023-09-18T02:40:47;10.18;;;7.57;;
22764;SDS011;11549;50.852;3.816;2023-09-18T02:43:15;12.85;;;8.13;;
22764;SDS011;11549;50.852;3.816;2023-09-18T02:45:43;14.60;;;8.25;;
22764;SDS011;11549;50.852;3.816;2023-09-18T02:48:13;12.23;;;8.02;;
22764;SDS011;11549;50.852;3.816;2023-09-18T02:50:42;11.43;;;8.70;;
22764;SDS011;11549;50.852;3.816;2023-09-18T02:53:16;14.05;;;9.68;;
22764;SDS011;11549;50.852;3.816;2023-09-18T02:55:46;14.18;;;9.10;;
22764;SDS011;11549;50.852;3.816;2023-09-18T02:58:14;14.13;;;9.73;;
22764;SDS011;11549;50.852;3.816;2023-09-18T03:00:43;15.32;;;9.93;;
22764;SDS011;11549;50.852;3.816;2023-09-18T03:03:12;15.52;;;9.68;;
22764;SDS011;11549;50.852;3.816;2023-09-18T03:05:43;14.88;;;10.10;;
22764;SDS011;11549;50.852;3.816;2023-09-18T03:08:14;14.25;;;10.30;;
22764;SDS011;11549;50.852;3.816;2023-09-18T03:10:43;14.32;;;10.23;;
22764;SDS011;11549;50.852;3.816;2023-09-18T03:13:12;13.50;;;9.63;;
22764;SDS011;11549;50.852;3.816;2023-09-18T03:15:44;14.93;;;10.00;;
22764;SDS011;11549;50.852;3.816;2023-09-18T03:18:15;14.20;;;9.77;;
22764;SDS011;11549;50.852;3.816;2023-09-18T03:20:43;14.02;;;9.35;;
22764;SDS011;11549;50.852;3.816;2023-09-18T03:23:11;12.05;;;9.25;;
22764;SDS011;11549;50.852;3.816;2023-09-18T03:25:42;15.07;;;8.60;;
22764;SDS011;11549;50.852;3.816;2023-09-18T03:28:17;13.50;;;9.43;;
22764;SDS011;11549;50.852;3.816;2023-09-18T03:30:45;13.70;;;9.70;;
22764;SDS011;11549;50.852;3.816;2023-09-18T03:33:15;15.00;;;10.43;;
22764;SDS011;11549;50.852;3.816;2023-09-18T03:35:46;12.40;;;8.85;;
22764;SDS011;11549;50.852;3.816;2023-09-18T03:38:16;14.50;;;8.90;;
22764;SDS011;11549;50.852;3.816;2023-09-18T03:40:45;11.88;;;8.07;;
22764;SDS011;11549;50.852;3.816;2023-09-18T03:43:13;11.23;;;8.23;;
22764;SDS011;11549;50.852;3.816;2023-09-18T03:45:41;11.80;;;7.38;;
22764;SDS011;11549;50.852;3.816;2023-09-18T03:48:10;10.15;;;5.97;;
22764;SDS011;11549;50.852;3.816;2023-09-18T03:50:40;9.95;;;5.47;;
22764;SDS011;11549;50.852;3.816;2023-09-18T03:53:09;9.68;;;5.60;;
22764;SDS011;11549;50.852;3.816;2023-09-18T03:55:38;9.82;;;5.30;;
22764;SDS011;11549;50.852;3.816;2023-09-18T03:58:06;10.35;;;5.03;;
22764;SDS011;11549;50.852;3.816;2023-09-18T04:00:34;7.70;;;5.03;;
22764;SDS011;11549;50.852;3.816;2023-09-18T04:03:03;8.10;;;4.45;;
22764;SDS011;11549;50.852;3.816;2023-09-18T04:05:31;7.43;;;4.22;;
22764;SDS011;11549;50.852;3.816;2023-09-18T04:08:01;6.53;;;4.10;;
22764;SDS011;11549;50.852;3.816;2023-09-18T04:10:30;8.02;;;4.32;;
22764;SDS011;11549;50.852;3.816;2023-09-18T04:12:59;10.45;;;4.22;;
22764;SDS011;11549;50.852;3.816;2023-09-18T04:15:27;7.55;;;3.20;;
22764;SDS011;11549;50.852;3.816;2023-09-18T04:17:57;5.50;;;3.25;;
22764;SDS011;11549;50.852;3.816;2023-09-18T04:20:25;6.45;;;2.90;;
22764;SDS011;11549;50.852;3.816;2023-09-18T04:25:49;7.07;;;2.92;;
22764;SDS011;11549;50.852;3.816;2023-09-18T04:28:18;5.63;;;2.90;;
22764;SDS011;11549;50.852;3.816;2023-09-18T04:30:47;6.22;;;3.00;;
22764;SDS011;11549;50.852;3.816;2023-09-18T04:33:16;5.57;;;2.88;;
22764;SDS011;11549;50.852;3.816;2023-09-18T04:35:45;5.55;;;2.83;;
22764;SDS011;11549;50.852;3.816;2023-09-18T04:38:13;6.95;;;2.70;;
22764;SDS011;11549;50.852;3.816;2023-09-18T04:40:43;4.45;;;2.50;;
22764;SDS011;11549;50.852;3.816;2023-09-18T04:43:12;3.88;;;2.50;;
22764;SDS011;11549;50.852;3.816;2023-09-18T04:45:40;9.10;;;2.60;;
22764;SDS011;11549;50.852;3.816;2023-09-18T04:48:09;5.00;;;2.60;;
22764;SDS011;11549;50.852;3.816;2023-09-18T04:50:38;5.85;;;2.83;;
22764;SDS011;11549;50.852;3.816;2023-09-18T04:53:06;4.50;;;2.70;;
22764;SDS011;11549;50.852;3.816;2023-09-18T04:55:35;5.85;;;2.80;;
22764;SDS011;11549;50.852;3.816;2023-09-18T04:58:06;6.90;;;2.80;;
22764;SDS011;11549;50.852;3.816;2023-09-18T05:00:34;5.88;;;2.92;;
22764;SDS011;11549;50.852;3.816;2023-09-18T05:03:03;5.88;;;2.80;;
22764;SDS011;11549;50.852;3.816;2023-09-18T05:05:33;8.40;;;3.03;;
22764;SDS011;11549;50.852;3.816;2023-09-18T05:08:01;6.38;;;3.30;;
22764;SDS011;11549;50.852;3.816;2023-09-18T05:10:31;5.50;;;3.10;;
22764;SDS011;11549;50.852;3.816;2023-09-18T05:12:59;6.28;;;3.08;;
22764;SDS011;11549;50.852;3.816;2023-09-18T05:15:29;7.60;;;3.70;;
22764;SDS011;11549;50.852;3.816;2023-09-18T05:17:59;6.32;;;3.70;;
22764;SDS011;11549;50.852;3.816;2023-09-18T05:20:28;6.55;;;3.70;;
22764;SDS011;11549;50.852;3.816;2023-09-18T05:22:58;7.85;;;3.88;;
22764;SDS011;11549;50.852;3.816;2023-09-18T05:25:28;5.65;;;4.00;;
22764;SDS011;11549;50.852;3.816;2023-09-18T05:27:59;5.55;;;3.90;;
22764;SDS011;11549;50.852;3.816;2023-09-18T05:30:28;8.80;;;4.53;;
22764;SDS011;11549;50.852;3.816;2023-09-18T05:33:01;7.03;;;4.15;;
22764;SDS011;11549;50.852;3.816;2023-09-18T05:35:32;9.52;;;4.50;;
22764;SDS011;11549;50.852;3.816;2023-09-18T05:38:01;8.98;;;4.03;;
22764;SDS011;11549;50.852;3.816;2023-09-18T05:40:30;8.70;;;4.43;;
22764;SDS011;11549;50.852;3.816;2023-09-18T05:42:59;11.20;;;4.78;;
22764;SDS011;11549;50.852;3.816;2023-09-18T05:45:27;10.40;;;4.63;;
22764;SDS011;11549;50.852;3.816;2023-09-18T05:47:58;11.02;;;5.35;;
22764;SDS011;11549;50.852;3.816;2023-09-18T05:50:31;8.00;;;4.60;;
22764;SDS011;11549;50.852;3.816;2023-09-18T05:53:01;9.77;;;4.70;;
22764;SDS011;11549;50.852;3.816;2023-09-18T05:55:31;7.82;;;4.55;;
22764;SDS011;11549;50.852;3.816;2023-09-18T05:58:00;7.90;;;4.70;;
22764;SDS011;11549;50.852;3.816;2023-09-18T06:00:32;8.15;;;4.85;;
22764;SDS011;11549;50.852;3.816;2023-09-18T06:03:00;9.82;;;4.68;;
22764;SDS011;11549;50.852;3.816;2023-09-18T06:05:29;7.80;;;5.03;;
22764;SDS011;11549;50.852;3.816;2023-09-18T06:08:00;8.68;;;4.95;;
22764;SDS011;11549;50.852;3.816;2023-09-18T06:10:28;6.38;;;4.72;;
22764;SDS011;11549;50.852;3.816;2023-09-18T06:12:57;8.57;;;5.28;;
22764;SDS011;11549;50.852;3.816;2023-09-18T06:15:32;9.05;;;5.10;;
22764;SDS011;11549;50.852;3.816;2023-09-18T06:18:00;6.68;;;4.75;;
22764;SDS011;11549;50.852;3.816;2023-09-18T06:20:30;10.55;;;5.95;;
22764;SDS011;11549;50.852;3.816;2023-09-18T06:22:59;8.70;;;5.20;;
22764;SDS011;11549;50.852;3.816;2023-09-18T06:25:27;8.75;;;5.68;;
22764;SDS011;11549;50.852;3.816;2023-09-18T06:27:55;9.57;;;4.95;;
22764;SDS011;11549;50.852;3.816;2023-09-18T06:30:24;9.50;;;5.30;;
22764;SDS011;11549;50.852;3.816;2023-09-18T06:32:55;8.05;;;5.05;;
22764;SDS011;11549;50.852;3.816;2023-09-18T06:35:23;10.68;;;5.85;;
22764;SDS011;11549;50.852;3.816;2023-09-18T06:37:51;9.50;;;5.80;;
22764;SDS011;11549;50.852;3.816;2023-09-18T06:40:21;9.77;;;5.80;;
22764;SDS011;11549;50.852;3.816;2023-09-18T06:42:49;8.75;;;5.85;;
22764;SDS011;11549;50.852;3.816;2023-09-18T06:45:18;10.88;;;6.53;;
22764;SDS011;11549;50.852;3.816;2023-09-18T06:47:46;9.52;;;6.15;;
22764;SDS011;11549;50.852;3.816;2023-09-18T06:50:16;7.53;;;5.85;;
22764;SDS011;11549;50.852;3.816;2023-09-18T06:52:45;8.88;;;6.47;;
22764;SDS011;11549;50.852;3.816;2023-09-18T06:55:14;8.30;;;5.85;;
22764;SDS011;11549;50.852;3.816;2023-09-18T06:57:43;8.55;;;5.72;;
22764;SDS011;11549;50.852;3.816;2023-09-18T07:00:11;10.70;;;6.40;;
22764;SDS011;11549;50.852;3.816;2023-09-18T07:02:44;8.55;;;5.93;;
22764;SDS011;11549;50.852;3.816;2023-09-18T07:05:13;10.15;;;5.60;;
22764;SDS011;11549;50.852;3.816;2023-09-18T07:07:43;8.98;;;5.13;;
22764;SDS011;11549;50.852;3.816;2023-09-18T07:10:11;7.00;;;5.50;;
22764;SDS011;11549;50.852;3.816;2023-09-18T07:12:39;7.53;;;4.65;;
22764;SDS011;11549;50.852;3.816;2023-09-18T07:15:08;7.43;;;4.50;;
22764;SDS011;11549;50.852;3.816;2023-09-18T07:17:36;8.48;;;4.45;;
22764;SDS011;11549;50.852;3.816;2023-09-18T07:20:05;7.43;;;4.28;;
22764;SDS011;11549;50.852;3.816;2023-09-18T07:25:51;6.97;;;3.88;;
22764;SDS011;11549;50.852;3.816;2023-09-18T07:28:42;8.88;;;4.22;;
22764;SDS011;11549;50.852;3.816;2023-09-18T07:31:43;8.85;;;4.22;;
22764;SDS011;11549;50.852;3.816;2023-09-18T07:34:33;8.57;;;4.00;;
22764;SDS011;11549;50.852;3.816;2023-09-18T07:37:29;10.63;;;5.28;;
22764;SDS011;11549;50.852;3.816;2023-09-18T07:40:43;7.32;;;4.70;;
22764;SDS011;11549;50.852;3.816;2023-09-18T07:44:26;8.82;;;4.72;;
22764;SDS011;11549;50.852;3.816;2023-09-18T07:46:54;10.95;;;4.93;;
22764;SDS011;11549;50.852;3.816;2023-09-18T07:49:22;10.10;;;5.22;;
22764;SDS011;11549;50.852;3.816;2023-09-18T07:51:51;10.23;;;4.80;;
22764;SDS011;11549;50.852;3.816;2023-09-18T07:54:19;8.73;;;5.00;;
22764;SDS011;11549;50.852;3.816;2023-09-18T07:56:48;9.30;;;5.10;;
22764;SDS011;11549;50.852;3.816;2023-09-18T07:59:17;9.55;;;5.00;;
22764;SDS011;11549;50.852;3.816;2023-09-18T08:01:45;9.52;;;5.05;;
22764;SDS011;11549;50.852;3.816;2023-09-18T08:04:13;10.07;;;5.80;;
22764;SDS011;11549;50.852;3.816;2023-09-18T08:06:41;9.73;;;5.13;;
22764;SDS011;11549;50.852;3.816;2023-09-18T08:09:10;10.30;;;5.60;;
22764;SDS011;11549;50.852;3.816;2023-09-18T08:11:40;9.40;;;6.05;;
22764;SDS011;11549;50.852;3.816;2023-09-18T08:14:14;9.82;;;6.30;;
22764;SDS011;11549;50.852;3.816;2023-09-18T08:16:43;8.23;;;5.47;;
22764;SDS011;11549;50.852;3.816;2023-09-18T08:19:14;8.65;;;5.25;;
22764;SDS011;11549;50.852;3.816;2023-09-18T08:21:43;10.25;;;5.20;;
22764;SDS011;11549;50.852;3.816;2023-09-18T08:24:12;10.88;;;5.43;;
22764;SDS011;11549;50.852;3.816;2023-09-18T08:26:40;9.15;;;5.75;;
22764;SDS011;11549;50.852;3.816;2023-09-18T08:29:09;11.13;;;6.25;;
22764;SDS011;11549;50.852;3.816;2023-09-18T08:31:38;9.73;;;6.30;;
22764;SDS011;11549;50.852;3.816;2023-09-18T08:34:07;9.93;;;6.57;;
22764;SDS011;11549;50.852;3.816;2023-09-18T08:36:35;11.43;;;6.80;;
22764;SDS011;11549;50.852;3.816;2023-09-18T08:39:03;11.18;;;6.47;;
22764;SDS011;11549;50.852;3.816;2023-09-18T08:41:33;10.85;;;7.25;;
22764;SDS011;11549;50.852;3.816;2023-09-18T08:44:05;11.07;;;8.10;;
22764;SDS011;11549;50.852;3.816;2023-09-18T08:46:36;13.52;;;9.20;;
22764;SDS011;11549;50.852;3.816;2023-09-18T08:49:06;13.50;;;9.20;;
22764;SDS011;11549;50.852;3.816;2023-09-18T08:51:35;11.02;;;8.65;;
22764;SDS011;11549;50.852;3.816;2023-09-18T08:54:05;11.70;;;9.50;;
22764;SDS011;11549;50.852;3.816;2023-09-18T08:56:34;12.35;;;9.55;;
22764;SDS011;11549;50.852;3.816;2023-09-18T08:59:03;11.05;;;9.25;;
22764;SDS011;11549;50.852;3.816;2023-09-18T09:01:31;13.07;;;9.48;;
22764;SDS011;11549;50.852;3.816;2023-09-18T09:04:01;14.15;;;9.05;;
22764;SDS011;11549;50.852;3.816;2023-09-18T09:06:30;14.50;;;9.65;;
22764;SDS011;11549;50.852;3.816;2023-09-18T09:08:59;15.93;;;9.85;;
22764;SDS011;11549;50.852;3.816;2023-09-18T09:11:28;11.95;;;9.15;;
22764;SDS011;11549;50.852;3.816;2023-09-18T09:14:09;10.32;;;8.98;;
22764;SDS011;11549;50.852;3.816;2023-09-18T09:16:46;14.38;;;10.13;;
22764;SDS011;11549;50.852;3.816;2023-09-18T09:19:17;12.75;;;9.40;;
22764;SDS011;11549;50.852;3.816;2023-09-18T09:21:46;12.68;;;10.13;;
22764;SDS011;11549;50.852;3.816;2023-09-18T09:24:16;12.93;;;10.27;;
22764;SDS011;11549;50.852;3.816;2023-09-18T09:26:44;14.60;;;10.02;;
22764;SDS011;11549;50.852;3.816;2023-09-18T09:29:25;12.70;;;9.55;;
22764;SDS011;11549;50.852;3.816;2023-09-18T09:31:54;12.93;;;9.48;;
22764;SDS011;11549;50.852;3.816;2023-09-18T09:34:27;10.38;;;8.93;;
22764;SDS011;11549;50.852;3.816;2023-09-18T09:36:57;13.32;;;7.38;;
22764;SDS011;11549;50.852;3.816;2023-09-18T09:39:27;9.85;;;6.40;;
22764;SDS011;11549;50.852;3.816;2023-09-18T09:41:59;9.43;;;6.57;;
22764;SDS011;11549;50.852;3.816;2023-09-18T09:44:31;11.48;;;6.35;;
22764;SDS011;11549;50.852;3.816;2023-09-18T09:46:59;12.05;;;7.43;;
22764;SDS011;11549;50.852;3.816;2023-09-18T09:49:29;8.05;;;6.40;;
22764;SDS011;11549;50.852;3.816;2023-09-18T09:52:17;8.63;;;5.80;;
22764;SDS011;11549;50.852;3.816;2023-09-18T09:54:48;11.13;;;5.78;;
22764;SDS011;11549;50.852;3.816;2023-09-18T09:57:17;9.40;;;6.68;;
22764;SDS011;11549;50.852;3.816;2023-09-18T09:59:45;11.75;;;8.93;;
22764;SDS011;11549;50.852;3.816;2023-09-18T10:02:13;11.55;;;9.63;;
22764;SDS011;11549;50.852;3.816;2023-09-18T10:04:47;11.38;;;8.70;;
22764;SDS011;11549;50.852;3.816;2023-09-18T10:07:17;8.40;;;6.40;;
22764;SDS011;11549;50.852;3.816;2023-09-18T10:09:46;10.30;;;5.68;;
22764;SDS011;11549;50.852;3.816;2023-09-18T10:12:17;8.60;;;4.05;;
22764;SDS011;11549;50.852;3.816;2023-09-18T10:14:47;6.10;;;3.65;;
22764;SDS011;11549;50.852;3.816;2023-09-18T10:17:28;5.57;;;3.25;;
22764;SDS011;11549;50.852;3.816;2023-09-18T10:20:01;8.65;;;3.40;;
22764;SDS011;11549;50.852;3.816;2023-09-18T10:22:37;6.13;;;3.63;;
22764;SDS011;11549;50.852;3.816;2023-09-18T10:25:10;8.50;;;3.30;;
22764;SDS011;11549;50.852;3.816;2023-09-18T10:27:45;6.25;;;3.67;;
22764;SDS011;11549;50.852;3.816;2023-09-18T10:30:16;5.63;;;3.60;;
22764;SDS011;11549;50.852;3.816;2023-09-18T10:32:46;6.90;;;3.55;;
22764;SDS011;11549;50.852;3.816;2023-09-18T10:35:16;6.82;;;3.65;;
22764;SDS011;11549;50.852;3.816;2023-09-18T10:37:46;7.80;;;3.78;;
22764;SDS011;11549;50.852;3.816;2023-09-18T10:40:17;6.15;;;3.10;;
22764;SDS011;11549;50.852;3.816;2023-09-18T10:42:47;6.88;;;3.85;;
22764;SDS011;11549;50.852;3.816;2023-09-18T10:45:17;7.80;;;3.50;;
22764;SDS011;11549;50.852;3.816;2023-09-18T10:47:46;7.35;;;3.50;;
22764;SDS011;11549;50.852;3.816;2023-09-18T10:50:24;5.78;;;4.10;;
22764;SDS011;11549;50.852;3.816;2023-09-18T10:52:53;6.35;;;3.67;;
22764;SDS011;11549;50.852;3.816;2023-09-18T10:55:24;6.55;;;3.75;;
22764;SDS011;11549;50.852;3.816;2023-09-18T10:57:54;7.97;;;3.47;;
22764;SDS011;11549;50.852;3.816;2023-09-18T11:00:24;6.00;;;3.55;;
22764;SDS011;11549;50.852;3.816;2023-09-18T11:03:08;7.13;;;3.88;;
22764;SDS011;11549;50.852;3.816;2023-09-18T11:08:24;7.60;;;3.47;;
22764;SDS011;11549;50.852;3.816;2023-09-18T11:11:01;7.63;;;3.30;;
22764;SDS011;11549;50.852;3.816;2023-09-18T11:13:38;6.05;;;3.58;;
22764;SDS011;11549;50.852;3.816;2023-09-18T11:16:18;5.13;;;3.40;;
22764;SDS011;11549;50.852;3.816;2023-09-18T11:19:07;6.35;;;3.53;;
22764;SDS011;11549;50.852;3.816;2023-09-18T11:21:38;6.82;;;3.17;;
22764;SDS011;11549;50.852;3.816;2023-09-18T11:24:07;7.28;;;3.20;;
22764;SDS011;11549;50.852;3.816;2023-09-18T11:26:45;5.00;;;2.75;;
22764;SDS011;11549;50.852;3.816;2023-09-18T11:29:16;5.15;;;2.83;;
22764;SDS011;11549;50.852;3.816;2023-09-18T11:31:50;4.70;;;2.40;;
22764;SDS011;11549;50.852;3.816;2023-09-18T11:34:21;5.28;;;2.60;;
22764;SDS011;11549;50.852;3.816;2023-09-18T11:36:52;5.72;;;2.75;;
22764;SDS011;11549;50.852;3.816;2023-09-18T11:39:33;5.72;;;2.50;;
22764;SDS011;11549;50.852;3.816;2023-09-18T11:42:09;6.83;;;2.83;;
22764;SDS011;11549;50.852;3.816;2023-09-18T11:44:38;4.85;;;2.72;;
22764;SDS011;11549;50.852;3.816;2023-09-18T11:47:14;6.03;;;2.75;;
22764;SDS011;11549;50.852;3.816;2023-09-18T11:49:49;6.07;;;2.90;;
22764;SDS011;11549;50.852;3.816;2023-09-18T11:52:23;6.75;;;2.53;;
22764;SDS011;11549;50.852;3.816;2023-09-18T11:54:53;6.20;;;2.45;;
22764;SDS011;11549;50.852;3.816;2023-09-18T11:57:23;6.30;;;2.88;;
22764;SDS011;11549;50.852;3.816;2023-09-18T11:59:51;6.03;;;2.47;;
22764;SDS011;11549;50.852;3.816;2023-09-18T12:02:26;5.45;;;2.70;;
22764;SDS011;11549;50.852;3.816;2023-09-18T12:05:05;5.38;;;2.65;;
22764;SDS011;11549;50.852;3.816;2023-09-18T12:07:38;6.45;;;2.60;;
22764;SDS011;11549;50.852;3.816;2023-09-18T12:10:10;6.40;;;2.45;;
22764;SDS011;11549;50.852;3.816;2023-09-18T12:12:39;5.65;;;2.70;;
22764;SDS011;11549;50.852;3.816;2023-09-18T12:15:10;4.18;;;2.45;;
22764;SDS011;11549;50.852;3.816;2023-09-18T12:17:40;3.75;;;2.13;;
22764;SDS011;11549;50.852;3.816;2023-09-18T12:20:14;6.32;;;2.47;;
22764;SDS011;11549;50.852;3.816;2023-09-18T12:22:48;5.88;;;2.30;;
22764;SDS011;11549;50.852;3.816;2023-09-18T12:25:18;3.45;;;2.10;;
22764;SDS011;11549;50.852;3.816;2023-09-18T12:27:51;3.58;;;2.10;;
22764;SDS011;11549;50.852;3.816;2023-09-18T12:30:20;5.82;;;2.08;;
22764;SDS011;11549;50.852;3.816;2023-09-18T12:32:50;6.65;;;2.35;;
22764;SDS011;11549;50.852;3.816;2023-09-18T12:35:20;4.00;;;2.50;;
22764;SDS011;11549;50.852;3.816;2023-09-18T12:37:51;5.05;;;2.40;;
22764;SDS011;11549;50.852;3.816;2023-09-18T12:40:23;5.05;;;2.80;;
22764;SDS011;11549;50.852;3.816;2023-09-18T12:45:22;5.22;;;2.30;;
22764;SDS011;11549;50.852;3.816;2023-09-18T12:47:50;5.05;;;2.08;;
22764;SDS011;11549;50.852;3.816;2023-09-18T12:50:19;6.40;;;2.30;;
22764;SDS011;11549;50.852;3.816;2023-09-18T12:52:48;4.78;;;2.40;;
22764;SDS011;11549;50.852;3.816;2023-09-18T12:55:24;6.10;;;2.40;;
22764;SDS011;11549;50.852;3.816;2023-09-18T12:57:54;4.50;;;2.35;;
22764;SDS011;11549;50.852;3.816;2023-09-18T13:00:22;3.65;;;1.98;;
22764;SDS011;11549;50.852;3.816;2023-09-18T13:02:53;5.63;;;2.28;;
22764;SDS011;11549;50.852;3.816;2023-09-18T13:05:23;6.30;;;2.85;;
22764;SDS011;11549;50.852;3.816;2023-09-18T13:07:53;5.45;;;2.80;;
22764;SDS011;11549;50.852;3.816;2023-09-18T13:10:24;5.90;;;2.22;;
22764;SDS011;11549;50.852;3.816;2023-09-18T13:12:54;7.78;;;2.47;;
22764;SDS011;11549;50.852;3.816;2023-09-18T13:15:24;4.78;;;2.28;;
22764;SDS011;11549;50.852;3.816;2023-09-18T13:17:55;6.60;;;2.50;;
22764;SDS011;11549;50.852;3.816;2023-09-18T13:20:25;8.40;;;2.55;;
22764;SDS011;11549;50.852;3.816;2023-09-18T13:22:56;5.00;;;2.20;;
22764;SDS011;11549;50.852;3.816;2023-09-18T13:25:29;3.65;;;2.22;;
22764;SDS011;11549;50.852;3.816;2023-09-18T13:28:00;5.05;;;2.17;;
22764;SDS011;11549;50.852;3.816;2023-09-18T13:30:31;4.50;;;2.30;;
22764;SDS011;11549;50.852;3.816;2023-09-18T13:33:01;5.47;;;2.05;;
22764;SDS011;11549;50.852;3.816;2023-09-18T13:35:31;5.45;;;2.40;;
22764;SDS011;11549;50.852;3.816;2023-09-18T13:38:00;6.03;;;2.03;;
22764;SDS011;11549;50.852;3.816;2023-09-18T13:40:32;7.00;;;2.30;;
22764;SDS011;11549;50.852;3.816;2023-09-18T13:43:02;5.15;;;2.40;;
22764;SDS011;11549;50.852;3.816;2023-09-18T13:45:31;5.18;;;2.38;;
22764;SDS011;11549;50.852;3.816;2023-09-18T13:47:59;8.32;;;3.00;;
22764;SDS011;11549;50.852;3.816;2023-09-18T13:50:27;11.15;;;2.42;;
22764;SDS011;11549;50.852;3.816;2023-09-18T13:52:56;6.88;;;2.30;;
22764;SDS011;11549;50.852;3.816;2023-09-18T13:55:25;8.10;;;2.58;;
22764;SDS011;11549;50.852;3.816;2023-09-18T13:57:55;8.77;;;2.45;;
22764;SDS011;11549;50.852;3.816;2023-09-18T14:00:24;6.15;;;2.78;;
22764;SDS011;11549;50.852;3.816;2023-09-18T14:02:53;5.75;;;2.40;;
22764;SDS011;11549;50.852;3.816;2023-09-18T14:05:21;7.32;;;2.83;;
22764;SDS011;11549;50.852;3.816;2023-09-18T14:07:49;5.80;;;2.60;;
22764;SDS011;11549;50.852;3.816;2023-09-18T14:10:18;6.50;;;2.90;;
22764;SDS011;11549;50.852;3.816;2023-09-18T14:12:47;4.95;;;2.50;;
22764;SDS011;11549;50.852;3.816;2023-09-18T14:15:18;5.53;;;2.80;;
22764;SDS011;11549;50.852;3.816;2023-09-18T14:17:47;7.20;;;3.00;;
22764;SDS011;11549;50.852;3.816;2023-09-18T14:20:15;8.02;;;3.10;;
22764;SDS011;11549;50.852;3.816;2023-09-18T14:22:46;7.10;;;3.08;;
22764;SDS011;11549;50.852;3.816;2023-09-18T14:25:17;8.05;;;3.10;;
22764;SDS011;11549;50.852;3.816;2023-09-18T14:27:47;6.85;;;3.10;;
22764;SDS011;11549;50.852;3.816;2023-09-18T14:30:15;8.50;;;2.97;;
22764;SDS011;11549;50.852;3.816;2023-09-18T14:32:46;4.68;;;2.70;;
22764;SDS011;11549;50.852;3.816;2023-09-18T14:35:16;8.48;;;2.60;;
22764;SDS011;11549;50.852;3.816;2023-09-18T14:37:45;4.47;;;2.38;;
22764;SDS011;11549;50.852;3.816;2023-09-18T14:40:13;5.35;;;1.75;;
22764;SDS011;11549;50.852;3.816;2023-09-18T14:42:41;5.22;;;1.92;;
22764;SDS011;11549;50.852;3.816;2023-09-18T14:45:10;6.28;;;1.85;;
22764;SDS011;11549;50.852;3.816;2023-09-18T14:47:39;3.22;;;1.65;;
22764;SDS011;11549;50.852;3.816;2023-09-18T14:50:09;6.88;;;2.08;;
22764;SDS011;11549;50.852;3.816;2023-09-18T14:52:37;5.55;;;1.77;;
22764;SDS011;11549;50.852;3.816;2023-09-18T14:55:06;5.28;;;1.90;;
22764;SDS011;11549;50.852;3.816;2023-09-18T14:57:38;3.38;;;1.75;;
22764;SDS011;11549;50.852;3.816;2023-09-18T15:00:06;4.82;;;2.10;;
22764;SDS011;11549;50.852;3.816;2023-09-18T15:02:35;3.72;;;1.42;;
22764;SDS011;11549;50.852;3.816;2023-09-18T15:05:04;4.25;;;1.85;;
22764;SDS011;11549;50.852;3.816;2023-09-18T15:07:37;3.88;;;1.70;;
22764;SDS011;11549;50.852;3.816;2023-09-18T15:10:05;5.00;;;1.70;;
22764;SDS011;11549;50.852;3.816;2023-09-18T15:12:35;6.80;;;2.08;;
22764;SDS011;11549;50.852;3.816;2023-09-18T15:15:03;4.10;;;1.80;;